Time;durP1;ratioP1;P1;durP2;ratioP2;P2;SDS_P1;SDS_P2;PMS_P1;PMS_P2;Temp;Humidity;BMP_temperature;BMP_pressure;BME280_temperature;BME280_humidity;BME280_pressure;Samples;Min_cycle;Max_cycle;Signal;HPM_P1;HPM_P2
2022/12/02 00:01:20;;;;;;;;;8.00;7.67;;;;;;;;114894;1202;25197;-63
2022/12/02 00:03:49;;;;;;;;;5.00;3.00;;;;;;;;114943;1203;24817;-63
2022/12/02 00:06:29;;;;;;;;;6.50;4.50;;;;;;;;114910;1203;25326;-63
2022/12/02 00:09:27;;;;;;;;;5.50;5.00;;;;;;;;114800;1200;24672;-63
2022/12/02 00:11:57;;;;;;;;;6.50;5.50;;;;;;;;114971;1197;25139;-67
2022/12/02 00:14:30;;;;;;;;;6.00;4.00;;;;;;;;114865;1206;25501;-67
2022/12/02 00:16:58;;;;;;;;;10.00;6.67;;;;;;;;114957;1207;25665;-63
2022/12/02 00:19:26;;;;;;;;;5.33;5.00;;;;;;;;114990;1200;25581;-63
2022/12/02 00:21:54;;;;;;;;;9.00;7.00;;;;;;;;115114;1203;25009;-62
2022/12/02 00:24:23;;;;;;;;;9.00;6.00;;;;;;;;115129;1203;25629;-65
2022/12/02 00:26:51;;;;;;;;;7.00;5.00;;;;;;;;115137;1203;24870;-66
2022/12/02 00:29:20;;;;;;;;;8.50;8.00;;;;;;;;115122;1203;25531;-67
2022/12/02 00:31:48;;;;;;;;;7.00;6.00;;;;;;;;115127;1202;25191;-65
2022/12/02 00:34:17;;;;;;;;;6.00;6.00;;;;;;;;115141;1204;24712;-66
2022/12/02 00:36:45;;;;;;;;;5.50;5.00;;;;;;;;115100;1203;24781;-66
2022/12/02 00:39:15;;;;;;;;;7.00;7.00;;;;;;;;114946;1199;25531;-67
2022/12/02 00:41:43;;;;;;;;;8.00;7.00;;;;;;;;114960;1203;25321;-68
2022/12/02 00:46:59;;;;;;;;;7.00;7.00;;;;;;;;115161;1200;25065;-66
2022/12/02 00:49:27;;;;;;;;;11.50;9.00;;;;;;;;114960;1200;25670;-67
2022/12/02 00:51:56;;;;;;;;;6.67;6.67;;;;;;;;114978;1201;24934;-66
2022/12/02 00:54:24;;;;;;;;;8.00;7.00;;;;;;;;114974;1200;25507;-66
2022/12/02 00:56:52;;;;;;;;;8.00;6.00;;;;;;;;114914;1203;25062;-66
2022/12/02 00:59:21;;;;;;;;;9.00;8.00;;;;;;;;114931;1203;25195;-66
2022/12/02 01:01:49;;;;;;;;;10.50;6.00;;;;;;;;114883;1200;25070;-67
2022/12/02 01:04:18;;;;;;;;;4.00;3.00;;;;;;;;115122;1203;24968;-64
2022/12/02 01:06:46;;;;;;;;;5.00;4.00;;;;;;;;115009;1204;24723;-66
2022/12/02 01:09:14;;;;;;;;;7.00;6.50;;;;;;;;115159;1203;25643;-66
2022/12/02 01:11:43;;;;;;;;;6.00;6.00;;;;;;;;114964;1200;25024;-65
2022/12/02 01:14:11;;;;;;;;;12.00;7.00;;;;;;;;114970;1203;24915;-67
2022/12/02 01:16:40;;;;;;;;;9.00;7.00;;;;;;;;114858;1206;26463;-66
2022/12/02 01:19:08;;;;;;;;;4.50;4.00;;;;;;;;114923;1197;25001;-67
2022/12/02 01:21:37;;;;;;;;;9.25;6.50;;;;;;;;114934;1203;25312;-67
2022/12/02 01:24:05;;;;;;;;;5.00;4.00;;;;;;;;114952;1206;25647;-67
2022/12/02 01:26:34;;;;;;;;;7.33;5.67;;;;;;;;114990;1201;24800;-66
2022/12/02 01:29:02;;;;;;;;;10.00;7.00;;;;;;;;114959;1203;25579;-67
2022/12/02 01:31:31;;;;;;;;;8.00;8.00;;;;;;;;115163;1197;24700;-67
2022/12/02 01:33:59;;;;;;;;;10.00;6.00;;;;;;;;115058;1200;25562;-69
2022/12/02 01:36:28;;;;;;;;;5.50;5.50;;;;;;;;115147;1200;24795;-70
2022/12/02 01:38:56;;;;;;;;;9.50;6.50;;;;;;;;114918;1206;25117;-68
2022/12/02 01:41:25;;;;;;;;;9.00;7.00;;;;;;;;114909;1199;25541;-67
2022/12/02 01:43:53;;;;;;;;;7.00;6.00;;;;;;;;114936;1199;25558;-67
2022/12/02 01:46:22;;;;;;;;;8.67;6.33;;;;;;;;114873;1197;24763;-67
2022/12/02 01:48:50;;;;;;;;;8.00;6.50;;;;;;;;115008;1203;25528;-66
2022/12/02 01:51:19;;;;;;;;;6.67;6.00;;;;;;;;115075;1203;24887;-67
2022/12/02 01:53:47;;;;;;;;;7.00;4.00;;;;;;;;115130;1203;24841;-65
2022/12/02 01:56:16;;;;;;;;;7.00;6.00;;;;;;;;115002;1208;25203;-65
2022/12/02 01:58:44;;;;;;;;;7.67;7.67;;;;;;;;115015;1200;25049;-65
2022/12/02 02:01:31;;;;;;;;;8.00;6.33;;;;;;;;114961;1200;25196;-67
2022/12/02 02:04:01;;;;;;;;;9.00;6.00;;;;;;;;115161;1206;25236;-66
2022/12/02 02:06:33;;;;;;;;;11.50;7.00;;;;;;;;115138;1193;24685;-67
2022/12/02 02:09:02;;;;;;;;;5.50;5.50;;;;;;;;115156;1206;25679;-67
2022/12/02 02:11:30;;;;;;;;;8.00;6.00;;;;;;;;115146;1195;24884;-66
2022/12/02 02:14:00;;;;;;;;;7.33;7.33;;;;;;;;114949;1203;24996;-67
2022/12/02 02:16:28;;;;;;;;;8.00;6.00;;;;;;;;115181;1200;25011;-65
2022/12/02 02:18:57;;;;;;;;;9.50;7.50;;;;;;;;114959;1200;25492;-64
2022/12/02 02:21:34;;;;;;;;;4.00;4.00;;;;;;;;115144;1206;25601;-66
2022/12/02 02:24:02;;;;;;;;;10.00;8.00;;;;;;;;115145;1206;25068;-65
2022/12/02 02:26:30;;;;;;;;;8.00;6.00;;;;;;;;114940;1208;25115;-64
2022/12/02 02:28:59;;;;;;;;;6.33;6.33;;;;;;;;114936;1204;25506;-64
2022/12/02 02:31:28;;;;;;;;;7.00;6.00;;;;;;;;115008;1200;25621;-66
2022/12/02 02:33:57;;;;;;;;;9.00;8.00;;;;;;;;114971;1193;24927;-66
2022/12/02 02:36:25;;;;;;;;;7.00;5.00;;;;;;;;114856;1204;25511;-70
2022/12/02 02:38:54;;;;;;;;;7.50;5.00;;;;;;;;114954;1203;24907;-68
2022/12/02 02:41:22;;;;;;;;;11.50;5.50;;;;;;;;114974;1206;25057;-66
2022/12/02 02:43:51;;;;;;;;;7.00;7.00;;;;;;;;114934;1203;24816;-68
2022/12/02 02:46:20;;;;;;;;;10.00;7.50;;;;;;;;115073;1198;25672;-75
2022/12/02 02:48:50;;;;;;;;;6.33;6.00;;;;;;;;114959;1199;25351;-69
2022/12/02 02:51:18;;;;;;;;;7.50;7.50;;;;;;;;114917;1194;25556;-74
2022/12/02 02:53:47;;;;;;;;;6.67;6.67;;;;;;;;114823;1207;25319;-71
2022/12/02 02:56:15;;;;;;;;;7.00;5.00;;;;;;;;114862;1203;25258;-67
2022/12/02 02:58:44;;;;;;;;;5.00;5.00;;;;;;;;114964;1198;24826;-66
2022/12/02 03:01:23;;;;;;;;;8.00;7.00;;;;;;;;114931;1208;25312;-66
2022/12/02 03:04:07;;;;;;;;;8.67;7.00;;;;;;;;114880;1199;25171;-66
2022/12/02 03:06:38;;;;;;;;;8.00;8.00;;;;;;;;114898;1206;25505;-68
2022/12/02 03:09:08;;;;;;;;;11.67;7.67;;;;;;;;114913;1203;25603;-66
2022/12/02 03:11:37;;;;;;;;;6.00;6.00;;;;;;;;114844;1208;25104;-67
2022/12/02 03:14:07;;;;;;;;;7.00;5.00;;;;;;;;114845;1199;25624;-67
2022/12/02 03:16:43;;;;;;;;;8.50;6.00;;;;;;;;114921;1203;25448;-66
2022/12/02 03:19:12;;;;;;;;;6.00;6.00;;;;;;;;114944;1200;25517;-67
2022/12/02 03:21:41;;;;;;;;;8.00;6.50;;;;;;;;114896;1202;25036;-66
2022/12/02 03:24:10;;;;;;;;;6.50;6.50;;;;;;;;114959;1199;25379;-67
2022/12/02 03:26:39;;;;;;;;;9.00;7.00;;;;;;;;114900;1199;25294;-66
2022/12/02 03:29:09;;;;;;;;;6.00;6.00;;;;;;;;114970;1199;24946;-66
2022/12/02 03:31:38;;;;;;;;;5.00;5.00;;;;;;;;114883;1206;25564;-66
2022/12/02 03:34:07;;;;;;;;;4.00;3.00;;;;;;;;114920;1200;25377;-67
2022/12/02 03:36:36;;;;;;;;;7.00;7.00;;;;;;;;114910;1203;24935;-66
2022/12/02 03:39:04;;;;;;;;;6.00;6.00;;;;;;;;114828;1208;25473;-67
2022/12/02 03:41:33;;;;;;;;;5.33;5.33;;;;;;;;114916;1203;25208;-66
2022/12/02 03:44:01;;;;;;;;;9.00;7.00;;;;;;;;114915;1208;24851;-67
2022/12/02 03:46:30;;;;;;;;;9.00;7.50;;;;;;;;114916;1199;24866;-68
2022/12/02 03:49:00;;;;;;;;;9.00;6.67;;;;;;;;114963;1204;25522;-67
2022/12/02 03:51:29;;;;;;;;;10.00;6.33;;;;;;;;114873;1200;25710;-66
2022/12/02 03:53:59;;;;;;;;;6.00;6.00;;;;;;;;114952;1206;25621;-66
2022/12/02 03:56:28;;;;;;;;;8.00;6.00;;;;;;;;114936;1194;24750;-64
2022/12/02 03:58:56;;;;;;;;;6.00;6.00;;;;;;;;114980;1200;24976;-66
2022/12/02 04:01:24;;;;;;;;;4.50;3.50;;;;;;;;114974;1200;25634;-66
2022/12/02 04:03:53;;;;;;;;;9.67;8.33;;;;;;;;115146;1206;25084;-65
2022/12/02 04:06:21;;;;;;;;;12.00;6.00;;;;;;;;114878;1208;25196;-66
2022/12/02 04:08:50;;;;;;;;;8.00;8.00;;;;;;;;115118;1203;25602;-67
2022/12/02 04:11:18;;;;;;;;;8.00;7.00;;;;;;;;114962;1203;25003;-67
2022/12/02 04:13:46;;;;;;;;;8.33;6.33;;;;;;;;115077;1200;24753;-67
2022/12/02 04:16:15;;;;;;;;;8.00;6.00;;;;;;;;115149;1203;25482;-67
2022/12/02 04:18:43;;;;;;;;;7.25;7.25;;;;;;;;115160;1203;25503;-67
2022/12/02 04:21:12;;;;;;;;;8.33;7.00;;;;;;;;115077;1206;25379;-67
2022/12/02 04:23:42;;;;;;;;;9.00;7.00;;;;;;;;115134;1203;25527;-67
2022/12/02 04:26:10;;;;;;;;;9.50;6.50;;;;;;;;114905;1203;24890;-67
2022/12/02 04:28:39;;;;;;;;;6.00;6.00;;;;;;;;115002;1198;25666;-68
2022/12/02 04:31:07;;;;;;;;;6.00;6.00;;;;;;;;115150;1200;25589;-65
2022/12/02 04:33:36;;;;;;;;;5.00;5.00;;;;;;;;115126;1200;25232;-67
2022/12/02 04:36:05;;;;;;;;;8.00;7.00;;;;;;;;114921;1200;25349;-66
2022/12/02 04:38:33;;;;;;;;;6.00;4.00;;;;;;;;114961;1199;25001;-67
2022/12/02 04:41:01;;;;;;;;;8.00;8.00;;;;;;;;114822;1204;26166;-67
2022/12/02 04:43:30;;;;;;;;;6.00;5.00;;;;;;;;114938;1196;25564;-65
2022/12/02 04:45:58;;;;;;;;;7.00;4.00;;;;;;;;115053;1203;25596;-66
2022/12/02 04:48:27;;;;;;;;;7.00;6.00;;;;;;;;115090;1203;25342;-66
2022/12/02 04:50:55;;;;;;;;;7.00;5.00;;;;;;;;114927;1194;25178;-65
2022/12/02 04:53:24;;;;;;;;;7.50;5.00;;;;;;;;114868;1203;25575;-67
2022/12/02 04:55:52;;;;;;;;;7.33;5.00;;;;;;;;114929;1208;25464;-67
2022/12/02 04:58:21;;;;;;;;;9.00;6.00;;;;;;;;114941;1197;24778;-66
2022/12/02 05:00:49;;;;;;;;;7.33;6.67;;;;;;;;114984;1200;26082;-65
2022/12/02 05:03:17;;;;;;;;;6.00;4.00;;;;;;;;114940;1200;25705;-65
2022/12/02 05:05:46;;;;;;;;;5.00;4.00;;;;;;;;114946;1196;24834;-65
2022/12/02 05:08:14;;;;;;;;;9.00;7.00;;;;;;;;114938;1199;25284;-66
2022/12/02 05:10:43;;;;;;;;;6.00;6.00;;;;;;;;114909;1200;25102;-66
2022/12/02 05:13:11;;;;;;;;;6.00;4.00;;;;;;;;114945;1208;24776;-66
2022/12/02 05:15:40;;;;;;;;;6.00;6.00;;;;;;;;114937;1200;24813;-66
2022/12/02 05:18:08;;;;;;;;;5.50;4.00;;;;;;;;114999;1203;25383;-65
2022/12/02 05:20:36;;;;;;;;;5.67;5.00;;;;;;;;114946;1203;25421;-65
2022/12/02 05:23:05;;;;;;;;;5.00;4.00;;;;;;;;115111;1206;25440;-66
2022/12/02 05:25:34;;;;;;;;;8.00;7.00;;;;;;;;114946;1199;24719;-66
2022/12/02 05:28:02;;;;;;;;;4.50;4.50;;;;;;;;114910;1203;25167;-66
2022/12/02 05:30:31;;;;;;;;;5.50;5.00;;;;;;;;114849;1207;24954;-66
2022/12/02 05:32:59;;;;;;;;;4.00;4.00;;;;;;;;114928;1206;24697;-66
2022/12/02 05:35:27;;;;;;;;;6.00;6.00;;;;;;;;114987;1200;25175;-66
2022/12/02 05:37:56;;;;;;;;;6.33;5.33;;;;;;;;114887;1206;25662;-66
2022/12/02 05:40:32;;;;;;;;;6.50;6.00;;;;;;;;114961;1197;25174;-65
2022/12/02 05:43:15;;;;;;;;;7.00;6.00;;;;;;;;114968;1199;24845;-67
2022/12/02 05:45:44;;;;;;;;;7.00;4.33;;;;;;;;114852;1200;25329;-67
2022/12/02 05:48:14;;;;;;;;;5.00;4.00;;;;;;;;114937;1195;25204;-68
2022/12/02 05:50:43;;;;;;;;;7.50;6.50;;;;;;;;114827;1208;24776;-67
2022/12/02 05:53:22;;;;;;;;;7.00;6.00;;;;;;;;114888;1208;24990;-65
2022/12/02 05:55:51;;;;;;;;;7.00;5.75;;;;;;;;114943;1197;25396;-64
2022/12/02 05:58:20;;;;;;;;;9.00;6.00;;;;;;;;114947;1199;24721;-65
2022/12/02 06:00:58;;;;;;;;;7.00;6.00;;;;;;;;114915;1203;24846;-65
2022/12/02 06:03:27;;;;;;;;;5.00;4.50;;;;;;;;114888;1203;24994;-65
2022/12/02 06:05:56;;;;;;;;;8.00;6.25;;;;;;;;114974;1203;25085;-65
2022/12/02 06:08:30;;;;;;;;;4.50;4.50;;;;;;;;114956;1195;25370;-64
2022/12/02 06:11:30;;;;;;;;;9.00;5.50;;;;;;;;115067;1200;25752;-64
2022/12/02 06:14:01;;;;;;;;;6.00;5.00;;;;;;;;115031;1202;25215;-64
2022/12/02 06:16:30;;;;;;;;;7.50;4.00;;;;;;;;114838;1206;26479;-65
2022/12/02 06:18:59;;;;;;;;;9.00;6.00;;;;;;;;114966;1203;25566;-65
2022/12/02 06:21:28;;;;;;;;;5.50;5.50;;;;;;;;115022;1200;24908;-65
2022/12/02 06:23:58;;;;;;;;;5.50;4.50;;;;;;;;115017;1198;24864;-65
2022/12/02 06:26:26;;;;;;;;;8.50;7.00;;;;;;;;115132;1206;24852;-64
2022/12/02 06:29:01;;;;;;;;;5.33;4.67;;;;;;;;115104;1203;25517;-65
2022/12/02 06:31:41;;;;;;;;;7.00;3.00;;;;;;;;114967;1203;25096;-66
2022/12/02 06:34:31;;;;;;;;;8.00;6.50;;;;;;;;114846;1204;24865;-68
2022/12/02 06:37:07;;;;;;;;;9.33;3.67;;;;;;;;114911;1203;25091;-72
2022/12/02 06:39:37;;;;;;;;;6.67;6.00;;;;;;;;114885;1203;24886;-65
2022/12/02 06:42:31;;;;;;;;;6.50;5.00;;;;;;;;114876;1204;24915;-65
2022/12/02 06:45:20;;;;;;;;;7.33;5.00;;;;;;;;114989;1199;25306;-66
2022/12/02 06:48:02;;;;;;;;;9.50;5.50;;;;;;;;114948;1206;25000;-67
2022/12/02 06:50:41;;;;;;;;;6.50;5.00;;;;;;;;114895;1196;25102;-64
2022/12/02 06:53:16;;;;;;;;;6.00;4.50;;;;;;;;114913;1205;25642;-63
2022/12/02 06:55:46;;;;;;;;;7.50;5.00;;;;;;;;115004;1203;25006;-66
2022/12/02 06:58:49;;;;;;;;;7.00;6.00;;;;;;;;114962;1206;24808;-66
2022/12/02 07:01:41;;;;;;;;;8.67;7.00;;;;;;;;114761;1199;25124;-67
2022/12/02 07:04:40;;;;;;;;;6.00;4.50;;;;;;;;115021;1195;25016;-69
2022/12/02 07:07:16;;;;;;;;;9.00;6.50;;;;;;;;114993;1200;25501;-64
2022/12/02 07:09:54;;;;;;;;;12.50;7.00;;;;;;;;114883;1200;25045;-61
2022/12/02 07:12:33;;;;;;;;;11.00;8.00;;;;;;;;114987;1197;25662;-62
2022/12/02 07:15:21;;;;;;;;;11.00;8.75;;;;;;;;114949;1197;24740;-62
2022/12/02 07:17:50;;;;;;;;;9.50;8.50;;;;;;;;114904;1199;24951;-61
2022/12/02 07:20:35;;;;;;;;;13.00;11.00;;;;;;;;114924;1196;24879;-62
2022/12/02 07:23:13;;;;;;;;;15.00;12.00;;;;;;;;114745;1199;24843;-63
2022/12/02 07:25:50;;;;;;;;;13.00;9.00;;;;;;;;114982;1202;24851;-64
2022/12/02 07:28:33;;;;;;;;;12.00;9.50;;;;;;;;114909;1203;25434;-62
2022/12/02 07:31:09;;;;;;;;;8.00;8.00;;;;;;;;115000;1203;25302;-64
2022/12/02 07:33:38;;;;;;;;;12.50;10.50;;;;;;;;114843;1203;24928;-63
2022/12/02 07:36:06;;;;;;;;;11.50;10.00;;;;;;;;114835;1194;24977;-64
2022/12/02 07:38:35;;;;;;;;;13.00;10.33;;;;;;;;114841;1200;25134;-63
2022/12/02 07:41:24;;;;;;;;;10.00;9.00;;;;;;;;114881;1203;25185;-63
2022/12/02 07:43:53;;;;;;;;;11.50;9.00;;;;;;;;114860;1208;25225;-75
2022/12/02 07:46:22;;;;;;;;;14.50;10.00;;;;;;;;115036;1203;25437;-63
2022/12/02 07:48:50;;;;;;;;;9.00;5.00;;;;;;;;115003;1200;24746;-62
2022/12/02 07:51:24;;;;;;;;;7.00;6.00;;;;;;;;114919;1200;26721;-63
2022/12/02 07:53:52;;;;;;;;;11.50;9.00;;;;;;;;114872;1201;25191;-66
2022/12/02 07:56:21;;;;;;;;;9.00;8.00;;;;;;;;114909;1206;25661;-62
2022/12/02 07:58:50;;;;;;;;;11.00;9.00;;;;;;;;114957;1203;25648;-61
2022/12/02 08:01:38;;;;;;;;;12.00;9.00;;;;;;;;115009;1203;25623;-63
2022/12/02 08:04:07;;;;;;;;;13.00;8.00;;;;;;;;115036;1207;25606;-62
2022/12/02 08:06:36;;;;;;;;;10.00;8.00;;;;;;;;114882;1200;25156;-61
2022/12/02 08:09:08;;;;;;;;;10.00;8.00;;;;;;;;114935;1200;25465;-61
2022/12/02 08:11:37;;;;;;;;;10.50;7.00;;;;;;;;115007;1200;25285;-64
2022/12/02 08:14:05;;;;;;;;;10.50;9.00;;;;;;;;114987;1200;25148;-60
2022/12/02 08:16:34;;;;;;;;;10.00;8.00;;;;;;;;115009;1201;25054;-60
2022/12/02 08:19:02;;;;;;;;;11.00;9.00;;;;;;;;114978;1200;25215;-61
2022/12/02 08:21:31;;;;;;;;;11.00;11.00;;;;;;;;114887;1203;25328;-61
2022/12/02 08:24:00;;;;;;;;;16.00;12.00;;;;;;;;115023;1200;24736;-60
2022/12/02 08:26:28;;;;;;;;;12.00;8.00;;;;;;;;114948;1200;25340;-63
2022/12/02 08:28:57;;;;;;;;;20.00;12.00;;;;;;;;114859;1200;25512;-63
2022/12/02 08:31:26;;;;;;;;;21.00;17.00;;;;;;;;114935;1196;25442;-62
2022/12/02 08:33:55;;;;;;;;;24.00;15.00;;;;;;;;114873;1200;25294;-64
2022/12/02 08:36:23;;;;;;;;;26.50;16.00;;;;;;;;114956;1203;24828;-62
2022/12/02 08:38:52;;;;;;;;;30.00;19.00;;;;;;;;114984;1202;25105;-62
2022/12/02 08:41:20;;;;;;;;;23.50;18.50;;;;;;;;114849;1196;25141;-62
2022/12/02 08:43:50;;;;;;;;;32.00;18.00;;;;;;;;116277;1206;26353;-63
2022/12/02 08:46:18;;;;;;;;;32.50;21.50;;;;;;;;114834;1200;25587;-71
2022/12/02 08:48:47;;;;;;;;;21.50;20.00;;;;;;;;114857;1203;25144;-63
2022/12/02 08:51:15;;;;;;;;;24.50;20.50;;;;;;;;115054;1203;25921;-63
2022/12/02 08:53:43;;;;;;;;;21.00;17.00;;;;;;;;114937;1200;25524;-63
2022/12/02 08:56:12;;;;;;;;;30.00;19.00;;;;;;;;114800;1207;25768;-61
2022/12/02 08:58:43;;;;;;;;;16.00;15.00;;;;;;;;114845;1205;26008;-60
2022/12/02 09:01:13;;;;;;;;;16.00;13.50;;;;;;;;114917;1200;25175;-61
2022/12/02 09:03:41;;;;;;;;;20.33;14.33;;;;;;;;114929;1203;24982;-64
2022/12/02 09:06:09;;;;;;;;;19.50;15.50;;;;;;;;114942;1200;25364;-64
2022/12/02 09:08:38;;;;;;;;;23.00;17.00;;;;;;;;114962;1201;24888;-68
2022/12/02 09:11:07;;;;;;;;;19.00;16.50;;;;;;;;114924;1200;25088;-62
2022/12/02 09:13:35;;;;;;;;;17.67;13.33;;;;;;;;115077;1203;25028;-65
2022/12/02 09:16:04;;;;;;;;;19.33;13.33;;;;;;;;115050;1203;25414;-73
2022/12/02 09:18:32;;;;;;;;;23.00;14.00;;;;;;;;114963;1200;24676;-59
2022/12/02 09:21:01;;;;;;;;;22.00;17.00;;;;;;;;115042;1203;25103;-59
2022/12/02 09:23:29;;;;;;;;;18.00;14.50;;;;;;;;115123;1207;25353;-60
2022/12/02 09:25:58;;;;;;;;;20.00;13.00;;;;;;;;115109;1206;24886;-59
2022/12/02 09:28:26;;;;;;;;;18.50;14.50;;;;;;;;115076;1203;25254;-59
2022/12/02 09:30:55;;;;;;;;;13.50;12.00;;;;;;;;114966;1204;24744;-60
2022/12/02 09:33:23;;;;;;;;;12.50;10.50;;;;;;;;115117;1200;24977;-60
2022/12/02 09:35:59;;;;;;;;;16.00;10.00;;;;;;;;115059;1203;25525;-62
2022/12/02 09:38:30;;;;;;;;;17.50;12.50;;;;;;;;114935;1200;25063;-59
2022/12/02 09:40:59;;;;;;;;;18.50;13.50;;;;;;;;114946;1196;24993;-59
2022/12/02 09:43:28;;;;;;;;;21.00;12.00;;;;;;;;114885;1203;24726;-59
2022/12/02 09:45:57;;;;;;;;;12.00;10.00;;;;;;;;114823;1203;24699;-63
2022/12/02 09:48:26;;;;;;;;;12.00;11.00;;;;;;;;114742;1206;24766;-63
2022/12/02 09:50:55;;;;;;;;;16.00;8.50;;;;;;;;114881;1197;25112;-64
2022/12/02 09:53:32;;;;;;;;;15.00;13.00;;;;;;;;114955;1200;25318;-64
2022/12/02 09:56:00;;;;;;;;;18.00;12.50;;;;;;;;114853;1203;24868;-65
2022/12/02 09:58:29;;;;;;;;;16.00;12.00;;;;;;;;114965;1206;25230;-65
2022/12/02 10:00:57;;;;;;;;;19.75;13.25;;;;;;;;114808;1206;25080;-64
2022/12/02 10:03:27;;;;;;;;;12.50;11.50;;;;;;;;115006;1200;24724;-65
2022/12/02 10:05:56;;;;;;;;;16.00;13.00;;;;;;;;114909;1203;24705;-61
2022/12/02 10:08:26;;;;;;;;;11.67;9.00;;;;;;;;114898;1200;25555;-63
2022/12/02 10:10:58;;;;;;;;;15.00;11.00;;;;;;;;114879;1203;24771;-66
2022/12/02 10:13:27;;;;;;;;;13.00;9.00;;;;;;;;115018;1200;24901;-65
2022/12/02 10:15:58;;;;;;;;;12.50;9.00;;;;;;;;114895;1200;25333;-61
2022/12/02 10:18:29;;;;;;;;;14.00;11.00;;;;;;;;114853;1199;24727;-63
2022/12/02 10:20:57;;;;;;;;;15.50;12.00;;;;;;;;114914;1203;25218;-63
2022/12/02 10:23:27;;;;;;;;;14.50;11.00;;;;;;;;114929;1197;25341;-60
2022/12/02 10:26:12;;;;;;;;;13.00;11.00;;;;;;;;114944;1203;24821;-61
2022/12/02 10:28:43;;;;;;;;;11.50;11.00;;;;;;;;114984;1203;25446;-61
2022/12/02 10:31:21;;;;;;;;;14.00;11.00;;;;;;;;114821;1200;24764;-60
2022/12/02 10:33:55;;;;;;;;;14.00;9.00;;;;;;;;114942;1208;25501;-61
2022/12/02 10:36:31;;;;;;;;;12.00;8.00;;;;;;;;114959;1206;24829;-61
2022/12/02 10:39:24;;;;;;;;;10.00;9.00;;;;;;;;114968;1199;25083;-62
2022/12/02 10:42:08;;;;;;;;;13.50;9.50;;;;;;;;114912;1203;24906;-61
2022/12/02 10:44:41;;;;;;;;;11.00;11.00;;;;;;;;114961;1203;24849;-61
2022/12/02 10:47:18;;;;;;;;;8.33;8.33;;;;;;;;114987;1202;25306;-60
2022/12/02 10:49:56;;;;;;;;;13.00;10.00;;;;;;;;114948;1203;25633;-61
2022/12/02 10:52:31;;;;;;;;;15.00;8.00;;;;;;;;114930;1202;26418;-63
2022/12/02 10:55:01;;;;;;;;;9.50;8.00;;;;;;;;114949;1200;24980;-61
2022/12/02 10:57:32;;;;;;;;;11.33;9.00;;;;;;;;114967;1206;25690;-62
2022/12/02 11:00:06;;;;;;;;;7.00;6.00;;;;;;;;114856;1203;25410;-60
2022/12/02 11:02:46;;;;;;;;;17.00;10.00;;;;;;;;115092;1196;24949;-61
2022/12/02 11:05:32;;;;;;;;;10.00;8.00;;;;;;;;115277;1196;25558;-63
2022/12/02 11:08:06;;;;;;;;;12.00;10.00;;;;;;;;115070;1203;25193;-60
2022/12/02 11:10:45;;;;;;;;;15.00;9.00;;;;;;;;114971;1199;24779;-61
2022/12/02 11:13:17;;;;;;;;;16.00;11.00;;;;;;;;114919;1203;25977;-61
2022/12/02 11:15:48;;;;;;;;;22.00;10.00;;;;;;;;114993;1199;25208;-61
2022/12/02 11:18:22;;;;;;;;;17.00;7.00;;;;;;;;114857;1203;25439;-64
2022/12/02 11:21:00;;;;;;;;;15.00;9.67;;;;;;;;114925;1198;24841;-60
2022/12/02 11:23:30;;;;;;;;;16.50;10.50;;;;;;;;114952;1200;25089;-62
2022/12/02 11:26:07;;;;;;;;;13.50;10.00;;;;;;;;114922;1200;25416;-59
2022/12/02 11:28:46;;;;;;;;;9.67;8.00;;;;;;;;114903;1208;25440;-60
2022/12/02 11:31:17;;;;;;;;;10.50;9.00;;;;;;;;115017;1197;25548;-58
2022/12/02 11:33:53;;;;;;;;;8.00;6.00;;;;;;;;114940;1199;24990;-60
2022/12/02 11:36:28;;;;;;;;;11.00;7.00;;;;;;;;114916;1203;24888;-61
2022/12/02 11:38:57;;;;;;;;;12.00;8.00;;;;;;;;114875;1203;24746;-61
2022/12/02 11:41:53;;;;;;;;;15.50;7.50;;;;;;;;114936;1200;25554;-61
2022/12/02 11:44:24;;;;;;;;;6.00;5.33;;;;;;;;114864;1208;25140;-60
2022/12/02 11:47:02;;;;;;;;;12.00;11.00;;;;;;;;114999;1203;25424;-60
2022/12/02 11:49:41;;;;;;;;;15.00;6.50;;;;;;;;114871;1203;24807;-61
2022/12/02 11:52:12;;;;;;;;;10.00;7.00;;;;;;;;114939;1203;26473;-61
2022/12/02 11:55:02;;;;;;;;;11.50;9.50;;;;;;;;114954;1202;25560;-61
2022/12/02 11:57:58;;;;;;;;;13.25;7.75;;;;;;;;114965;1203;25508;-60
2022/12/02 12:00:32;;;;;;;;;12.50;8.50;;;;;;;;114898;1208;25214;-61
2022/12/02 12:03:11;;;;;;;;;17.50;10.00;;;;;;;;115021;1200;24904;-61
2022/12/02 12:05:39;;;;;;;;;;;;;;;;;;114938;1195;25216;-63
2022/12/02 12:08:08;;;;;;;;;11.67;8.33;;;;;;;;114840;1200;25734;-63
2022/12/02 12:10:39;;;;;;;;;15.25;8.75;;;;;;;;114891;1200;25403;-63
2022/12/02 12:13:11;;;;;;;;;12.67;8.33;;;;;;;;114874;1203;25568;-63
2022/12/02 12:15:49;;;;;;;;;14.50;8.00;;;;;;;;114910;1203;25113;-63
2022/12/02 12:18:44;;;;;;;;;11.00;6.00;;;;;;;;115040;1198;25382;-62
2022/12/02 12:21:34;;;;;;;;;12.75;8.25;;;;;;;;114920;1203;25158;-63
2022/12/02 12:24:20;;;;;;;;;13.00;7.33;;;;;;;;114909;1201;25563;-63
2022/12/02 12:26:57;;;;;;;;;24.00;10.00;;;;;;;;114917;1203;24987;-62
2022/12/02 12:29:33;;;;;;;;;7.50;7.50;;;;;;;;116794;1206;24941;-63
2022/12/02 12:32:02;;;;;;;;;7.33;7.33;;;;;;;;116025;1200;25280;-66
2022/12/02 12:34:31;;;;;;;;;14.00;10.00;;;;;;;;116783;1208;24681;-64
2022/12/02 12:36:59;;;;;;;;;13.50;11.50;;;;;;;;116773;1196;24800;-64
2022/12/02 12:39:28;;;;;;;;;10.00;8.67;;;;;;;;115646;1203;25485;-63
2022/12/02 12:41:56;;;;;;;;;15.33;10.00;;;;;;;;114997;1200;25549;-64
2022/12/02 12:44:31;;;;;;;;;20.00;11.00;;;;;;;;114938;1203;25557;-62
2022/12/02 12:47:02;;;;;;;;;21.00;10.00;;;;;;;;114922;1200;25329;-63
2022/12/02 12:49:32;;;;;;;;;14.50;8.75;;;;;;;;114967;1197;24745;-64
2022/12/02 12:52:02;;;;;;;;;14.00;10.00;;;;;;;;114795;1200;25144;-65
2022/12/02 12:54:30;;;;;;;;;14.00;8.50;;;;;;;;115010;1206;25577;-64
2022/12/02 12:56:59;;;;;;;;;15.33;9.00;;;;;;;;114972;1203;24990;-64
2022/12/02 12:59:28;;;;;;;;;15.67;8.33;;;;;;;;114990;1200;24944;-65
2022/12/02 13:01:56;;;;;;;;;9.00;8.00;;;;;;;;114975;1200;24719;-64
2022/12/02 13:04:25;;;;;;;;;5.50;5.25;;;;;;;;115112;1200;25507;-64
2022/12/02 13:06:53;;;;;;;;;17.00;9.00;;;;;;;;114939;1194;25095;-64
2022/12/02 13:09:24;;;;;;;;;12.00;9.50;;;;;;;;114821;1200;25732;-62
2022/12/02 13:11:53;;;;;;;;;14.00;7.00;;;;;;;;114905;1202;24900;-64
2022/12/02 13:14:21;;;;;;;;;12.00;8.00;;;;;;;;114909;1200;24934;-64
2022/12/02 13:16:49;;;;;;;;;16.67;12.33;;;;;;;;114887;1203;24811;-62
2022/12/02 13:19:21;;;;;;;;;13.00;10.00;;;;;;;;114952;1200;25022;-63
2022/12/02 13:21:49;;;;;;;;;17.00;13.00;;;;;;;;114818;1203;25277;-63
2022/12/02 13:24:18;;;;;;;;;8.50;8.00;;;;;;;;114902;1200;26012;-62
2022/12/02 13:26:46;;;;;;;;;14.50;7.50;;;;;;;;114882;1203;25109;-62
2022/12/02 13:29:15;;;;;;;;;17.50;9.50;;;;;;;;114864;1203;24666;-62
2022/12/02 13:31:43;;;;;;;;;11.50;10.00;;;;;;;;115091;1203;25547;-62
2022/12/02 13:34:12;;;;;;;;;13.00;10.00;;;;;;;;115042;1200;25057;-62
2022/12/02 13:36:40;;;;;;;;;13.00;9.00;;;;;;;;114915;1203;25584;-62
2022/12/02 13:39:10;;;;;;;;;16.00;12.00;;;;;;;;114930;1199;25194;-59
2022/12/02 13:41:39;;;;;;;;;14.50;11.50;;;;;;;;115001;1202;25261;-62
2022/12/02 13:44:07;;;;;;;;;12.50;11.50;;;;;;;;114969;1208;25625;-60
2022/12/02 13:46:35;;;;;;;;;16.00;8.00;;;;;;;;114965;1200;25009;-60
2022/12/02 13:49:04;;;;;;;;;11.00;9.00;;;;;;;;114981;1198;25487;-60
2022/12/02 13:51:32;;;;;;;;;13.33;9.67;;;;;;;;114935;1204;24829;-61
2022/12/02 13:54:01;;;;;;;;;18.00;14.00;;;;;;;;115073;1203;26433;-61
2022/12/02 13:56:29;;;;;;;;;14.50;10.00;;;;;;;;114949;1206;25289;-60
2022/12/02 13:58:57;;;;;;;;;11.00;7.00;;;;;;;;114950;1198;25521;-61
2022/12/02 14:01:26;;;;;;;;;14.50;9.50;;;;;;;;114881;1203;25669;-60
2022/12/02 14:03:54;;;;;;;;;14.33;9.33;;;;;;;;114952;1200;25642;-61
2022/12/02 14:06:23;;;;;;;;;12.00;9.00;;;;;;;;114981;1193;24908;-61
2022/12/02 14:08:51;;;;;;;;;11.50;7.50;;;;;;;;114890;1202;24877;-61
2022/12/02 14:11:20;;;;;;;;;9.50;8.00;;;;;;;;115013;1200;25603;-64
2022/12/02 14:13:49;;;;;;;;;16.50;12.00;;;;;;;;114850;1204;24731;-62
2022/12/02 14:16:21;;;;;;;;;17.00;10.33;;;;;;;;114945;1200;25347;-71
2022/12/02 14:18:49;;;;;;;;;15.00;9.00;;;;;;;;114842;1201;26462;-65
2022/12/02 14:21:24;;;;;;;;;16.00;11.75;;;;;;;;115018;1203;24990;-65
2022/12/02 14:23:54;;;;;;;;;16.00;11.00;;;;;;;;114908;1200;25267;-65
2022/12/02 14:26:22;;;;;;;;;10.00;10.00;;;;;;;;114999;1206;25495;-64
2022/12/02 14:28:50;;;;;;;;;13.00;11.00;;;;;;;;114915;1208;25561;-67
2022/12/02 14:31:19;;;;;;;;;9.67;9.00;;;;;;;;115073;1200;25657;-65
2022/12/02 14:33:54;;;;;;;;;17.00;10.00;;;;;;;;115061;1198;24702;-67
2022/12/02 14:36:41;;;;;;;;;14.67;10.33;;;;;;;;114847;1206;24998;-63
2022/12/02 14:39:10;;;;;;;;;18.00;12.00;;;;;;;;114921;1206;24660;-62
2022/12/02 14:41:39;;;;;;;;;12.00;11.33;;;;;;;;114940;1197;25490;-62
2022/12/02 14:44:08;;;;;;;;;19.00;13.50;;;;;;;;114943;1196;26063;-63
2022/12/02 14:46:36;;;;;;;;;21.00;16.50;;;;;;;;114855;1200;25525;-62
2022/12/02 14:49:05;;;;;;;;;25.50;17.00;;;;;;;;115010;1203;24978;-62